sensor_id;sensor_type;location;lat;lon;timestamp;P1;durP1;ratioP1;P2;durP2;ratioP2
19456;SDS011;9867;48.094;11.478;2022-09-17T00:01:22;7.37;;;6.27;;
19456;SDS011;9867;48.094;11.478;2022-09-17T00:03:53;6.60;;;6.07;;
19456;SDS011;9867;48.094;11.478;2022-09-17T00:06:23;6.13;;;5.63;;
19456;SDS011;9867;48.094;11.478;2022-09-17T00:08:52;6.87;;;6.27;;
19456;SDS011;9867;48.094;11.478;2022-09-17T00:11:21;6.97;;;5.67;;
19456;SDS011;9867;48.094;11.478;2022-09-17T00:13:52;6.87;;;6.17;;
19456;SDS011;9867;48.094;11.478;2022-09-17T00:16:22;7.57;;;5.40;;
19456;SDS011;9867;48.094;11.478;2022-09-17T00:18:52;4.93;;;4.53;;
19456;SDS011;9867;48.094;11.478;2022-09-17T00:21:20;5.17;;;4.67;;
19456;SDS011;9867;48.094;11.478;2022-09-17T00:23:51;5.50;;;4.57;;
19456;SDS011;9867;48.094;11.478;2022-09-17T00:26:21;5.60;;;4.80;;
19456;SDS011;9867;48.094;11.478;2022-09-17T00:28:50;5.70;;;4.30;;
19456;SDS011;9867;48.094;11.478;2022-09-17T00:31:20;6.63;;;4.50;;
19456;SDS011;9867;48.094;11.478;2022-09-17T00:33:49;5.20;;;4.30;;
19456;SDS011;9867;48.094;11.478;2022-09-17T00:36:17;4.53;;;3.80;;
19456;SDS011;9867;48.094;11.478;2022-09-17T00:38:47;3.97;;;3.67;;
19456;SDS011;9867;48.094;11.478;2022-09-17T00:41:16;4.07;;;3.33;;
19456;SDS011;9867;48.094;11.478;2022-09-17T00:43:45;3.87;;;3.53;;
19456;SDS011;9867;48.094;11.478;2022-09-17T00:46:25;3.93;;;3.53;;
19456;SDS011;9867;48.094;11.478;2022-09-17T00:48:58;4.47;;;3.60;;
19456;SDS011;9867;48.094;11.478;2022-09-17T00:51:30;5.43;;;3.60;;
19456;SDS011;9867;48.094;11.478;2022-09-17T00:54:03;3.57;;;3.27;;
19456;SDS011;9867;48.094;11.478;2022-09-17T00:56:34;5.73;;;3.30;;
19456;SDS011;9867;48.094;11.478;2022-09-17T00:59:05;6.57;;;3.37;;
19456;SDS011;9867;48.094;11.478;2022-09-17T01:01:35;3.97;;;3.33;;
19456;SDS011;9867;48.094;11.478;2022-09-17T01:04:04;3.50;;;3.20;;
19456;SDS011;9867;48.094;11.478;2022-09-17T01:06:33;6.10;;;3.70;;
19456;SDS011;9867;48.094;11.478;2022-09-17T01:09:20;4.27;;;2.90;;
19456;SDS011;9867;48.094;11.478;2022-09-17T01:11:59;3.47;;;2.80;;
19456;SDS011;9867;48.094;11.478;2022-09-17T01:14:54;3.20;;;2.80;;
19456;SDS011;9867;48.094;11.478;2022-09-17T01:17:33;3.87;;;3.30;;
19456;SDS011;9867;48.094;11.478;2022-09-17T01:23:10;3.80;;;3.50;;
19456;SDS011;9867;48.094;11.478;2022-09-17T01:25:58;3.40;;;3.10;;
19456;SDS011;9867;48.094;11.478;2022-09-17T01:28:40;3.40;;;3.10;;
19456;SDS011;9867;48.094;11.478;2022-09-17T01:31:28;3.63;;;3.30;;
19456;SDS011;9867;48.094;11.478;2022-09-17T01:34:08;3.93;;;3.30;;
19456;SDS011;9867;48.094;11.478;2022-09-17T01:36:47;4.87;;;3.30;;
19456;SDS011;9867;48.094;11.478;2022-09-17T01:39:28;4.67;;;3.80;;
19456;SDS011;9867;48.094;11.478;2022-09-17T01:42:08;5.37;;;3.87;;
19456;SDS011;9867;48.094;11.478;2022-09-17T01:44:49;6.13;;;3.40;;
19456;SDS011;9867;48.094;11.478;2022-09-17T01:47:25;4.27;;;2.87;;
19456;SDS011;9867;48.094;11.478;2022-09-17T01:50:02;3.50;;;3.20;;
19456;SDS011;9867;48.094;11.478;2022-09-17T01:52:35;3.13;;;2.93;;
19456;SDS011;9867;48.094;11.478;2022-09-17T01:55:07;4.20;;;3.60;;
19456;SDS011;9867;48.094;11.478;2022-09-17T01:57:40;6.83;;;4.27;;
19456;SDS011;9867;48.094;11.478;2022-09-17T02:00:14;4.20;;;3.90;;
19456;SDS011;9867;48.094;11.478;2022-09-17T02:02:45;3.37;;;3.17;;
19456;SDS011;9867;48.094;11.478;2022-09-17T02:05:18;4.93;;;3.40;;
19456;SDS011;9867;48.094;11.478;2022-09-17T02:07:49;3.27;;;2.93;;
19456;SDS011;9867;48.094;11.478;2022-09-17T02:10:21;3.40;;;3.10;;
19456;SDS011;9867;48.094;11.478;2022-09-17T02:12:55;3.87;;;3.27;;
19456;SDS011;9867;48.094;11.478;2022-09-17T02:15:27;3.60;;;3.30;;
19456;SDS011;9867;48.094;11.478;2022-09-17T02:18:02;3.47;;;3.17;;
19456;SDS011;9867;48.094;11.478;2022-09-17T02:20:38;3.57;;;3.27;;
19456;SDS011;9867;48.094;11.478;2022-09-17T02:23:11;4.43;;;3.80;;
19456;SDS011;9867;48.094;11.478;2022-09-17T02:25:43;4.50;;;3.87;;
19456;SDS011;9867;48.094;11.478;2022-09-17T02:28:18;4.77;;;4.33;;
19456;SDS011;9867;48.094;11.478;2022-09-17T02:30:50;4.47;;;3.60;;
19456;SDS011;9867;48.094;11.478;2022-09-17T02:33:20;4.10;;;3.70;;
19456;SDS011;9867;48.094;11.478;2022-09-17T02:35:48;3.93;;;3.63;;
19456;SDS011;9867;48.094;11.478;2022-09-17T02:38:20;3.33;;;3.10;;
19456;SDS011;9867;48.094;11.478;2022-09-17T02:40:50;6.07;;;3.60;;
19456;SDS011;9867;48.094;11.478;2022-09-17T02:43:33;5.33;;;3.10;;
19456;SDS011;9867;48.094;11.478;2022-09-17T02:46:13;3.60;;;3.10;;
19456;SDS011;9867;48.094;11.478;2022-09-17T02:49:00;3.80;;;3.27;;
19456;SDS011;9867;48.094;11.478;2022-09-17T02:51:43;4.37;;;3.60;;
19456;SDS011;9867;48.094;11.478;2022-09-17T02:54:22;3.60;;;3.30;;
19456;SDS011;9867;48.094;11.478;2022-09-17T02:56:56;4.87;;;3.30;;
19456;SDS011;9867;48.094;11.478;2022-09-17T02:59:36;3.40;;;3.10;;
19456;SDS011;9867;48.094;11.478;2022-09-17T03:02:11;3.50;;;3.20;;
19456;SDS011;9867;48.094;11.478;2022-09-17T03:04:46;4.20;;;3.40;;
19456;SDS011;9867;48.094;11.478;2022-09-17T03:07:16;3.70;;;3.40;;
19456;SDS011;9867;48.094;11.478;2022-09-17T03:09:46;3.83;;;3.43;;
19456;SDS011;9867;48.094;11.478;2022-09-17T03:12:14;5.60;;;3.10;;
19456;SDS011;9867;48.094;11.478;2022-09-17T03:14:42;3.70;;;2.93;;
19456;SDS011;9867;48.094;11.478;2022-09-17T03:17:11;3.50;;;3.20;;
19456;SDS011;9867;48.094;11.478;2022-09-17T03:19:40;3.50;;;3.20;;
19456;SDS011;9867;48.094;11.478;2022-09-17T03:22:09;4.17;;;3.20;;
19456;SDS011;9867;48.094;11.478;2022-09-17T03:24:37;4.93;;;3.23;;
19456;SDS011;9867;48.094;11.478;2022-09-17T03:27:05;5.07;;;3.30;;
19456;SDS011;9867;48.094;11.478;2022-09-17T03:29:33;4.63;;;3.50;;
19456;SDS011;9867;48.094;11.478;2022-09-17T03:32:01;4.00;;;3.60;;
19456;SDS011;9867;48.094;11.478;2022-09-17T03:34:29;3.77;;;3.47;;
19456;SDS011;9867;48.094;11.478;2022-09-17T03:36:56;3.70;;;3.33;;
19456;SDS011;9867;48.094;11.478;2022-09-17T03:39:25;3.20;;;2.97;;
19456;SDS011;9867;48.094;11.478;2022-09-17T03:41:54;3.60;;;3.23;;
19456;SDS011;9867;48.094;11.478;2022-09-17T03:44:22;3.37;;;2.93;;
19456;SDS011;9867;48.094;11.478;2022-09-17T03:46:50;6.30;;;3.07;;
19456;SDS011;9867;48.094;11.478;2022-09-17T03:49:18;3.03;;;2.80;;
19456;SDS011;9867;48.094;11.478;2022-09-17T03:51:45;3.80;;;2.90;;
19456;SDS011;9867;48.094;11.478;2022-09-17T03:54:13;3.27;;;2.83;;
19456;SDS011;9867;48.094;11.478;2022-09-17T03:56:42;2.90;;;2.70;;
19456;SDS011;9867;48.094;11.478;2022-09-17T03:59:10;3.37;;;2.90;;
19456;SDS011;9867;48.094;11.478;2022-09-17T04:01:38;3.27;;;3.00;;
19456;SDS011;9867;48.094;11.478;2022-09-17T04:04:06;4.07;;;3.10;;
19456;SDS011;9867;48.094;11.478;2022-09-17T04:06:34;3.30;;;3.00;;
19456;SDS011;9867;48.094;11.478;2022-09-17T04:09:02;3.27;;;3.00;;
19456;SDS011;9867;48.094;11.478;2022-09-17T04:11:30;3.43;;;3.07;;
19456;SDS011;9867;48.094;11.478;2022-09-17T04:13:59;3.50;;;3.07;;
19456;SDS011;9867;48.094;11.478;2022-09-17T04:16:27;4.23;;;2.93;;
19456;SDS011;9867;48.094;11.478;2022-09-17T04:18:55;5.30;;;3.40;;
19456;SDS011;9867;48.094;11.478;2022-09-17T04:21:24;3.20;;;2.90;;
19456;SDS011;9867;48.094;11.478;2022-09-17T04:23:52;4.63;;;3.20;;
19456;SDS011;9867;48.094;11.478;2022-09-17T04:26:20;3.40;;;2.90;;
19456;SDS011;9867;48.094;11.478;2022-09-17T04:28:47;4.17;;;3.40;;
19456;SDS011;9867;48.094;11.478;2022-09-17T04:31:17;3.23;;;3.03;;
19456;SDS011;9867;48.094;11.478;2022-09-17T04:33:44;5.23;;;3.07;;
19456;SDS011;9867;48.094;11.478;2022-09-17T04:36:12;6.20;;;2.80;;
19456;SDS011;9867;48.094;11.478;2022-09-17T04:38:40;3.30;;;3.10;;
19456;SDS011;9867;48.094;11.478;2022-09-17T04:41:08;3.60;;;2.77;;
19456;SDS011;9867;48.094;11.478;2022-09-17T04:43:35;3.20;;;2.90;;
19456;SDS011;9867;48.094;11.478;2022-09-17T04:46:03;2.97;;;2.77;;
19456;SDS011;9867;48.094;11.478;2022-09-17T04:48:33;3.67;;;2.97;;
19456;SDS011;9867;48.094;11.478;2022-09-17T04:51:01;2.93;;;2.73;;
19456;SDS011;9867;48.094;11.478;2022-09-17T04:53:28;3.37;;;3.00;;
19456;SDS011;9867;48.094;11.478;2022-09-17T04:55:56;3.97;;;2.70;;
19456;SDS011;9867;48.094;11.478;2022-09-17T04:58:24;3.13;;;2.83;;
19456;SDS011;9867;48.094;11.478;2022-09-17T05:00:52;3.53;;;2.63;;
19456;SDS011;9867;48.094;11.478;2022-09-17T05:03:19;3.77;;;2.60;;
19456;SDS011;9867;48.094;11.478;2022-09-17T05:05:49;3.63;;;2.67;;
19456;SDS011;9867;48.094;11.478;2022-09-17T05:08:18;3.07;;;2.40;;
19456;SDS011;9867;48.094;11.478;2022-09-17T05:10:48;2.73;;;2.53;;
19456;SDS011;9867;48.094;11.478;2022-09-17T05:13:16;3.57;;;2.40;;
19456;SDS011;9867;48.094;11.478;2022-09-17T05:15:44;5.10;;;2.40;;
19456;SDS011;9867;48.094;11.478;2022-09-17T05:18:13;2.60;;;2.40;;
19456;SDS011;9867;48.094;11.478;2022-09-17T05:20:41;4.07;;;2.40;;
19456;SDS011;9867;48.094;11.478;2022-09-17T05:23:11;3.60;;;2.20;;
19456;SDS011;9867;48.094;11.478;2022-09-17T05:25:38;4.00;;;2.30;;
19456;SDS011;9867;48.094;11.478;2022-09-17T05:28:06;3.57;;;2.30;;
19456;SDS011;9867;48.094;11.478;2022-09-17T05:30:34;3.03;;;2.40;;
19456;SDS011;9867;48.094;11.478;2022-09-17T05:33:02;2.57;;;2.37;;
19456;SDS011;9867;48.094;11.478;2022-09-17T05:35:33;2.73;;;2.20;;
19456;SDS011;9867;48.094;11.478;2022-09-17T05:38:03;2.80;;;2.30;;
19456;SDS011;9867;48.094;11.478;2022-09-17T05:40:34;3.60;;;2.23;;
19456;SDS011;9867;48.094;11.478;2022-09-17T05:43:03;3.13;;;2.23;;
19456;SDS011;9867;48.094;11.478;2022-09-17T05:45:33;4.70;;;2.20;;
19456;SDS011;9867;48.094;11.478;2022-09-17T05:48:03;2.83;;;2.20;;
19456;SDS011;9867;48.094;11.478;2022-09-17T05:50:32;3.43;;;2.00;;
19456;SDS011;9867;48.094;11.478;2022-09-17T05:53:02;2.03;;;1.93;;
19456;SDS011;9867;48.094;11.478;2022-09-17T05:55:33;3.57;;;2.30;;
19456;SDS011;9867;48.094;11.478;2022-09-17T05:58:07;3.10;;;2.10;;
19456;SDS011;9867;48.094;11.478;2022-09-17T06:00:36;4.63;;;2.40;;
19456;SDS011;9867;48.094;11.478;2022-09-17T06:03:04;3.83;;;2.47;;
19456;SDS011;9867;48.094;11.478;2022-09-17T06:05:32;2.50;;;2.30;;
19456;SDS011;9867;48.094;11.478;2022-09-17T06:08:00;2.80;;;2.13;;
19456;SDS011;9867;48.094;11.478;2022-09-17T06:10:28;6.23;;;2.70;;
19456;SDS011;9867;48.094;11.478;2022-09-17T06:12:57;3.80;;;2.30;;
19456;SDS011;9867;48.094;11.478;2022-09-17T06:15:26;4.23;;;2.40;;
19456;SDS011;9867;48.094;11.478;2022-09-17T06:17:54;3.10;;;2.40;;
19456;SDS011;9867;48.094;11.478;2022-09-17T06:20:22;3.77;;;2.03;;
19456;SDS011;9867;48.094;11.478;2022-09-17T06:22:54;2.90;;;1.97;;
19456;SDS011;9867;48.094;11.478;2022-09-17T06:25:22;3.33;;;2.03;;
19456;SDS011;9867;48.094;11.478;2022-09-17T06:27:50;2.77;;;2.07;;
19456;SDS011;9867;48.094;11.478;2022-09-17T06:30:19;7.23;;;2.37;;
19456;SDS011;9867;48.094;11.478;2022-09-17T06:32:47;5.33;;;2.50;;
19456;SDS011;9867;48.094;11.478;2022-09-17T06:35:15;4.00;;;3.10;;
19456;SDS011;9867;48.094;11.478;2022-09-17T06:37:45;4.33;;;2.20;;
19456;SDS011;9867;48.094;11.478;2022-09-17T06:40:14;2.07;;;1.73;;
19456;SDS011;9867;48.094;11.478;2022-09-17T06:42:43;6.73;;;2.50;;
19456;SDS011;9867;48.094;11.478;2022-09-17T06:45:10;3.10;;;2.03;;
19456;SDS011;9867;48.094;11.478;2022-09-17T06:47:43;3.30;;;2.10;;
19456;SDS011;9867;48.094;11.478;2022-09-17T06:50:11;3.47;;;2.20;;
19456;SDS011;9867;48.094;11.478;2022-09-17T06:52:39;3.60;;;1.97;;
19456;SDS011;9867;48.094;11.478;2022-09-17T06:55:14;4.07;;;2.20;;
19456;SDS011;9867;48.094;11.478;2022-09-17T06:57:42;5.17;;;2.67;;
19456;SDS011;9867;48.094;11.478;2022-09-17T07:00:10;4.23;;;2.40;;
19456;SDS011;9867;48.094;11.478;2022-09-17T07:02:39;7.23;;;2.30;;
19456;SDS011;9867;48.094;11.478;2022-09-17T07:05:09;3.47;;;2.10;;
19456;SDS011;9867;48.094;11.478;2022-09-17T07:07:36;5.90;;;2.23;;
19456;SDS011;9867;48.094;11.478;2022-09-17T07:10:06;5.83;;;2.30;;
19456;SDS011;9867;48.094;11.478;2022-09-17T07:12:38;2.63;;;1.83;;
19456;SDS011;9867;48.094;11.478;2022-09-17T07:15:13;4.00;;;2.23;;
19456;SDS011;9867;48.094;11.478;2022-09-17T07:17:41;7.23;;;2.40;;
19456;SDS011;9867;48.094;11.478;2022-09-17T07:20:11;2.23;;;1.70;;
19456;SDS011;9867;48.094;11.478;2022-09-17T07:22:39;6.17;;;2.17;;
19456;SDS011;9867;48.094;11.478;2022-09-17T07:25:07;6.67;;;2.50;;
19456;SDS011;9867;48.094;11.478;2022-09-17T07:27:36;5.10;;;2.13;;
19456;SDS011;9867;48.094;11.478;2022-09-17T07:30:04;3.10;;;1.67;;
19456;SDS011;9867;48.094;11.478;2022-09-17T07:32:32;5.50;;;1.93;;
19456;SDS011;9867;48.094;11.478;2022-09-17T07:35:00;4.60;;;1.90;;
19456;SDS011;9867;48.094;11.478;2022-09-17T07:37:30;3.47;;;1.77;;
19456;SDS011;9867;48.094;11.478;2022-09-17T07:39:57;7.13;;;2.20;;
19456;SDS011;9867;48.094;11.478;2022-09-17T07:42:25;3.67;;;1.80;;
19456;SDS011;9867;48.094;11.478;2022-09-17T07:44:53;4.17;;;1.97;;
19456;SDS011;9867;48.094;11.478;2022-09-17T07:47:27;5.37;;;2.20;;
19456;SDS011;9867;48.094;11.478;2022-09-17T07:49:55;3.03;;;2.07;;
19456;SDS011;9867;48.094;11.478;2022-09-17T07:52:23;5.07;;;1.90;;
19456;SDS011;9867;48.094;11.478;2022-09-17T07:54:52;5.60;;;1.73;;
19456;SDS011;9867;48.094;11.478;2022-09-17T07:57:20;6.00;;;2.33;;
19456;SDS011;9867;48.094;11.478;2022-09-17T07:59:47;7.10;;;2.03;;
19456;SDS011;9867;48.094;11.478;2022-09-17T08:02:15;5.53;;;1.97;;
19456;SDS011;9867;48.094;11.478;2022-09-17T08:04:49;3.40;;;1.67;;
19456;SDS011;9867;48.094;11.478;2022-09-17T08:07:17;2.73;;;1.60;;
19456;SDS011;9867;48.094;11.478;2022-09-17T08:09:45;2.47;;;1.37;;
19456;SDS011;9867;48.094;11.478;2022-09-17T08:12:15;2.87;;;1.77;;
19456;SDS011;9867;48.094;11.478;2022-09-17T08:14:44;4.63;;;2.10;;
19456;SDS011;9867;48.094;11.478;2022-09-17T08:17:12;5.83;;;1.70;;
19456;SDS011;9867;48.094;11.478;2022-09-17T08:19:40;5.00;;;1.83;;
19456;SDS011;9867;48.094;11.478;2022-09-17T08:22:08;5.90;;;2.00;;
19456;SDS011;9867;48.094;11.478;2022-09-17T08:24:36;6.00;;;2.27;;
19456;SDS011;9867;48.094;11.478;2022-09-17T08:27:03;4.37;;;2.10;;
19456;SDS011;9867;48.094;11.478;2022-09-17T08:29:33;5.33;;;2.00;;
19456;SDS011;9867;48.094;11.478;2022-09-17T08:32:01;4.13;;;1.70;;
19456;SDS011;9867;48.094;11.478;2022-09-17T08:34:29;4.57;;;1.80;;
19456;SDS011;9867;48.094;11.478;2022-09-17T08:36:57;5.40;;;1.90;;
19456;SDS011;9867;48.094;11.478;2022-09-17T08:39:24;4.67;;;1.80;;
19456;SDS011;9867;48.094;11.478;2022-09-17T08:41:54;5.87;;;2.23;;
19456;SDS011;9867;48.094;11.478;2022-09-17T08:44:37;3.33;;;1.70;;
19456;SDS011;9867;48.094;11.478;2022-09-17T08:47:10;6.23;;;2.30;;
19456;SDS011;9867;48.094;11.478;2022-09-17T08:49:47;4.03;;;1.87;;
19456;SDS011;9867;48.094;11.478;2022-09-17T08:55:29;6.50;;;2.53;;
19456;SDS011;9867;48.094;11.478;2022-09-17T08:58:16;3.50;;;1.87;;
19456;SDS011;9867;48.094;11.478;2022-09-17T09:00:56;4.10;;;1.90;;
19456;SDS011;9867;48.094;11.478;2022-09-17T09:03:32;6.73;;;2.23;;
19456;SDS011;9867;48.094;11.478;2022-09-17T09:06:08;4.97;;;1.97;;
19456;SDS011;9867;48.094;11.478;2022-09-17T09:08:37;5.90;;;1.80;;
19456;SDS011;9867;48.094;11.478;2022-09-17T09:11:10;7.57;;;2.03;;
19456;SDS011;9867;48.094;11.478;2022-09-17T09:13:44;6.03;;;1.90;;
19456;SDS011;9867;48.094;11.478;2022-09-17T09:16:17;4.30;;;2.00;;
19456;SDS011;9867;48.094;11.478;2022-09-17T09:18:50;5.63;;;1.83;;
19456;SDS011;9867;48.094;11.478;2022-09-17T09:21:22;5.00;;;2.10;;
19456;SDS011;9867;48.094;11.478;2022-09-17T09:23:54;3.80;;;1.73;;
19456;SDS011;9867;48.094;11.478;2022-09-17T09:26:31;3.33;;;1.80;;
19456;SDS011;9867;48.094;11.478;2022-09-17T09:29:09;5.63;;;1.83;;
19456;SDS011;9867;48.094;11.478;2022-09-17T09:32:04;5.57;;;2.00;;
19456;SDS011;9867;48.094;11.478;2022-09-17T09:34:47;6.33;;;2.47;;
19456;SDS011;9867;48.094;11.478;2022-09-17T09:37:17;6.47;;;1.90;;
19456;SDS011;9867;48.094;11.478;2022-09-17T09:39:49;3.63;;;1.83;;
19456;SDS011;9867;48.094;11.478;2022-09-17T09:42:22;3.93;;;1.77;;
19456;SDS011;9867;48.094;11.478;2022-09-17T09:44:56;3.03;;;1.77;;
19456;SDS011;9867;48.094;11.478;2022-09-17T09:47:35;4.87;;;2.00;;
19456;SDS011;9867;48.094;11.478;2022-09-17T09:50:18;5.07;;;2.00;;
19456;SDS011;9867;48.094;11.478;2022-09-17T09:53:15;5.80;;;2.03;;
19456;SDS011;9867;48.094;11.478;2022-09-17T09:55:53;2.80;;;1.60;;
19456;SDS011;9867;48.094;11.478;2022-09-17T09:58:33;4.33;;;1.60;;
19456;SDS011;9867;48.094;11.478;2022-09-17T10:01:02;4.70;;;2.10;;
19456;SDS011;9867;48.094;11.478;2022-09-17T10:03:39;5.53;;;2.33;;
19456;SDS011;9867;48.094;11.478;2022-09-17T10:06:11;4.13;;;1.77;;
19456;SDS011;9867;48.094;11.478;2022-09-17T10:08:41;5.80;;;2.23;;
19456;SDS011;9867;48.094;11.478;2022-09-17T10:11:31;6.83;;;2.27;;
19456;SDS011;9867;48.094;11.478;2022-09-17T10:14:12;4.00;;;1.83;;
19456;SDS011;9867;48.094;11.478;2022-09-17T10:16:45;4.63;;;2.17;;
19456;SDS011;9867;48.094;11.478;2022-09-17T10:19:17;6.10;;;2.03;;
19456;SDS011;9867;48.094;11.478;2022-09-17T10:21:50;4.27;;;1.60;;
19456;SDS011;9867;48.094;11.478;2022-09-17T10:24:21;7.67;;;2.00;;
19456;SDS011;9867;48.094;11.478;2022-09-17T10:26:53;6.83;;;2.07;;
19456;SDS011;9867;48.094;11.478;2022-09-17T10:29:28;6.97;;;2.20;;
19456;SDS011;9867;48.094;11.478;2022-09-17T10:31:56;6.17;;;2.70;;
19456;SDS011;9867;48.094;11.478;2022-09-17T10:34:26;2.53;;;2.17;;
19456;SDS011;9867;48.094;11.478;2022-09-17T10:36:55;6.83;;;2.47;;
19456;SDS011;9867;48.094;11.478;2022-09-17T10:39:30;6.37;;;2.57;;
19456;SDS011;9867;48.094;11.478;2022-09-17T10:42:02;3.63;;;2.13;;
19456;SDS011;9867;48.094;11.478;2022-09-17T10:44:31;7.90;;;2.73;;
19456;SDS011;9867;48.094;11.478;2022-09-17T10:47:04;4.20;;;2.30;;
19456;SDS011;9867;48.094;11.478;2022-09-17T10:49:38;5.50;;;2.60;;
19456;SDS011;9867;48.094;11.478;2022-09-17T10:52:17;5.90;;;2.63;;
19456;SDS011;9867;48.094;11.478;2022-09-17T10:58:00;3.90;;;2.50;;
19456;SDS011;9867;48.094;11.478;2022-09-17T11:00:33;4.60;;;2.47;;
19456;SDS011;9867;48.094;11.478;2022-09-17T11:09:14;4.00;;;2.40;;
19456;SDS011;9867;48.094;11.478;2022-09-17T11:11:54;4.73;;;2.63;;
19456;SDS011;9867;48.094;11.478;2022-09-17T11:14:36;6.53;;;2.60;;
19456;SDS011;9867;48.094;11.478;2022-09-17T11:17:23;5.60;;;2.20;;
19456;SDS011;9867;48.094;11.478;2022-09-17T11:20:05;4.13;;;1.90;;
19456;SDS011;9867;48.094;11.478;2022-09-17T11:22:49;2.70;;;1.77;;
19456;SDS011;9867;48.094;11.478;2022-09-17T11:25:43;3.03;;;1.80;;
19456;SDS011;9867;48.094;11.478;2022-09-17T11:28:20;2.43;;;1.53;;
19456;SDS011;9867;48.094;11.478;2022-09-17T11:31:03;2.57;;;1.40;;
19456;SDS011;9867;48.094;11.478;2022-09-17T11:33:42;2.87;;;1.43;;
19456;SDS011;9867;48.094;11.478;2022-09-17T11:36:22;2.67;;;1.50;;
19456;SDS011;9867;48.094;11.478;2022-09-17T11:38:54;1.27;;;1.20;;
19456;SDS011;9867;48.094;11.478;2022-09-17T11:41:25;1.60;;;1.50;;
19456;SDS011;9867;48.094;11.478;2022-09-17T11:43:59;1.87;;;1.70;;
19456;SDS011;9867;48.094;11.478;2022-09-17T11:46:36;4.90;;;2.30;;
19456;SDS011;9867;48.094;11.478;2022-09-17T11:49:09;1.87;;;1.60;;
19456;SDS011;9867;48.094;11.478;2022-09-17T11:51:42;2.90;;;1.47;;
19456;SDS011;9867;48.094;11.478;2022-09-17T11:54:15;1.93;;;1.80;;
19456;SDS011;9867;48.094;11.478;2022-09-17T11:56:49;3.60;;;1.47;;
19456;SDS011;9867;48.094;11.478;2022-09-17T11:59:21;3.63;;;1.60;;
19456;SDS011;9867;48.094;11.478;2022-09-17T12:01:55;4.70;;;1.80;;
19456;SDS011;9867;48.094;11.478;2022-09-17T12:04:36;3.70;;;1.90;;
19456;SDS011;9867;48.094;11.478;2022-09-17T12:07:18;3.50;;;1.80;;
19456;SDS011;9867;48.094;11.478;2022-09-17T12:09:54;2.17;;;1.80;;
19456;SDS011;9867;48.094;11.478;2022-09-17T12:12:26;3.87;;;1.73;;
19456;SDS011;9867;48.094;11.478;2022-09-17T12:15:16;6.30;;;1.90;;
19456;SDS011;9867;48.094;11.478;2022-09-17T12:17:51;3.90;;;2.00;;
19456;SDS011;9867;48.094;11.478;2022-09-17T12:20:46;2.90;;;1.80;;
19456;SDS011;9867;48.094;11.478;2022-09-17T12:23:19;2.37;;;1.87;;
19456;SDS011;9867;48.094;11.478;2022-09-17T12:25:56;2.33;;;1.87;;
19456;SDS011;9867;48.094;11.478;2022-09-17T12:28:30;3.13;;;1.90;;
19456;SDS011;9867;48.094;11.478;2022-09-17T12:31:07;2.30;;;2.10;;
19456;SDS011;9867;48.094;11.478;2022-09-17T12:33:47;5.27;;;2.23;;
19456;SDS011;9867;48.094;11.478;2022-09-17T12:36:36;6.83;;;2.40;;
19456;SDS011;9867;48.094;11.478;2022-09-17T12:39:26;4.50;;;2.10;;
19456;SDS011;9867;48.094;11.478;2022-09-17T12:42:14;2.93;;;1.70;;
19456;SDS011;9867;48.094;11.478;2022-09-17T12:44:54;3.90;;;1.77;;
19456;SDS011;9867;48.094;11.478;2022-09-17T12:47:44;2.70;;;1.90;;
19456;SDS011;9867;48.094;11.478;2022-09-17T12:50:37;2.53;;;1.77;;
19456;SDS011;9867;48.094;11.478;2022-09-17T12:53:20;3.30;;;2.33;;
19456;SDS011;9867;48.094;11.478;2022-09-17T12:55:55;1.77;;;1.67;;
19456;SDS011;9867;48.094;11.478;2022-09-17T12:58:36;1.70;;;1.10;;
19456;SDS011;9867;48.094;11.478;2022-09-17T13:01:16;1.50;;;1.40;;
19456;SDS011;9867;48.094;11.478;2022-09-17T13:03:52;3.13;;;1.77;;
19456;SDS011;9867;48.094;11.478;2022-09-17T13:06:31;3.43;;;1.60;;
19456;SDS011;9867;48.094;11.478;2022-09-17T13:09:23;2.20;;;1.40;;
19456;SDS011;9867;48.094;11.478;2022-09-17T13:14:57;3.50;;;1.30;;
19456;SDS011;9867;48.094;11.478;2022-09-17T13:17:52;2.97;;;1.47;;
19456;SDS011;9867;48.094;11.478;2022-09-17T13:20:53;3.77;;;1.83;;
19456;SDS011;9867;48.094;11.478;2022-09-17T13:23:29;2.67;;;1.50;;
19456;SDS011;9867;48.094;11.478;2022-09-17T13:25:59;1.57;;;1.30;;
19456;SDS011;9867;48.094;11.478;2022-09-17T13:28:37;2.77;;;1.20;;
19456;SDS011;9867;48.094;11.478;2022-09-17T13:31:12;1.57;;;1.10;;
19456;SDS011;9867;48.094;11.478;2022-09-17T13:33:50;3.93;;;1.40;;
19456;SDS011;9867;48.094;11.478;2022-09-17T13:39:36;2.87;;;1.40;;
19456;SDS011;9867;48.094;11.478;2022-09-17T13:42:07;3.17;;;1.47;;
19456;SDS011;9867;48.094;11.478;2022-09-17T13:44:40;2.47;;;1.20;;
19456;SDS011;9867;48.094;11.478;2022-09-17T13:47:18;1.67;;;0.93;;
19456;SDS011;9867;48.094;11.478;2022-09-17T13:49:51;2.30;;;1.13;;
19456;SDS011;9867;48.094;11.478;2022-09-17T13:52:33;2.87;;;1.20;;
19456;SDS011;9867;48.094;11.478;2022-09-17T13:55:06;1.10;;;1.00;;
19456;SDS011;9867;48.094;11.478;2022-09-17T13:57:44;1.23;;;1.13;;
19456;SDS011;9867;48.094;11.478;2022-09-17T14:09:28;1.13;;;1.00;;
19456;SDS011;9867;48.094;11.478;2022-09-17T14:12:15;2.87;;;1.33;;
19456;SDS011;9867;48.094;11.478;2022-09-17T14:15:08;3.77;;;1.80;;
19456;SDS011;9867;48.094;11.478;2022-09-17T14:18:00;2.10;;;1.00;;
19456;SDS011;9867;48.094;11.478;2022-09-17T14:20:31;2.43;;;1.40;;
19456;SDS011;9867;48.094;11.478;2022-09-17T14:23:00;2.97;;;1.37;;
19456;SDS011;9867;48.094;11.478;2022-09-17T14:25:31;2.90;;;1.40;;
19456;SDS011;9867;48.094;11.478;2022-09-17T14:28:09;4.50;;;1.50;;
19456;SDS011;9867;48.094;11.478;2022-09-17T14:30:46;2.83;;;1.53;;
19456;SDS011;9867;48.094;11.478;2022-09-17T14:33:14;2.87;;;1.43;;
19456;SDS011;9867;48.094;11.478;2022-09-17T14:35:45;3.90;;;1.50;;
19456;SDS011;9867;48.094;11.478;2022-09-17T14:38:15;2.80;;;1.67;;
19456;SDS011;9867;48.094;11.478;2022-09-17T14:40:55;2.23;;;1.40;;
19456;SDS011;9867;48.094;11.478;2022-09-17T14:43:30;2.27;;;1.43;;
19456;SDS011;9867;48.094;11.478;2022-09-17T14:46:04;1.80;;;1.30;;
19456;SDS011;9867;48.094;11.478;2022-09-17T14:48:37;2.70;;;1.70;;
19456;SDS011;9867;48.094;11.478;2022-09-17T14:51:10;2.87;;;1.50;;
19456;SDS011;9867;48.094;11.478;2022-09-17T14:54:08;1.40;;;0.90;;
19456;SDS011;9867;48.094;11.478;2022-09-17T14:56:47;1.53;;;1.10;;
19456;SDS011;9867;48.094;11.478;2022-09-17T14:59:24;3.67;;;1.50;;
19456;SDS011;9867;48.094;11.478;2022-09-17T15:01:58;1.73;;;1.40;;
19456;SDS011;9867;48.094;11.478;2022-09-17T15:04:26;1.40;;;1.30;;
19456;SDS011;9867;48.094;11.478;2022-09-17T15:07:05;2.67;;;1.33;;
19456;SDS011;9867;48.094;11.478;2022-09-17T15:09:34;1.77;;;1.20;;
19456;SDS011;9867;48.094;11.478;2022-09-17T15:12:02;4.23;;;1.40;;
19456;SDS011;9867;48.094;11.478;2022-09-17T15:14:33;3.50;;;1.50;;
19456;SDS011;9867;48.094;11.478;2022-09-17T15:17:05;1.60;;;1.00;;
19456;SDS011;9867;48.094;11.478;2022-09-17T15:19:35;0.97;;;0.97;;
19456;SDS011;9867;48.094;11.478;2022-09-17T15:22:05;0.93;;;0.80;;
19456;SDS011;9867;48.094;11.478;2022-09-17T15:24:39;1.80;;;1.07;;
19456;SDS011;9867;48.094;11.478;2022-09-17T15:27:11;2.20;;;0.90;;
19456;SDS011;9867;48.094;11.478;2022-09-17T15:29:44;1.60;;;1.30;;
19456;SDS011;9867;48.094;11.478;2022-09-17T15:32:14;2.93;;;1.33;;
19456;SDS011;9867;48.094;11.478;2022-09-17T15:34:41;1.00;;;1.00;;
19456;SDS011;9867;48.094;11.478;2022-09-17T15:37:16;2.93;;;1.20;;
19456;SDS011;9867;48.094;11.478;2022-09-17T15:39:46;1.93;;;1.20;;
19456;SDS011;9867;48.094;11.478;2022-09-17T15:42:18;1.37;;;1.27;;
19456;SDS011;9867;48.094;11.478;2022-09-17T15:44:49;2.37;;;1.40;;
19456;SDS011;9867;48.094;11.478;2022-09-17T15:47:33;1.60;;;1.50;;
19456;SDS011;9867;48.094;11.478;2022-09-17T15:50:12;1.50;;;1.27;;
19456;SDS011;9867;48.094;11.478;2022-09-17T15:52:42;2.23;;;1.27;;
19456;SDS011;9867;48.094;11.478;2022-09-17T15:55:27;1.17;;;1.07;;